This is the latest recevied weather packets stored in our database for station/object WE8M. If no packets are shown the sender has not sent any weather packets the latest 10 day(s).
| Time | Temp. | Humidity | Pressure | Rain* | Wind** | Luminosity | Snow |
|---|---|---|---|---|---|---|---|
| 1777516881 | 12.22° C | 73% | 1013.5 hPa | 0 mm | - | - | - |
| 1777516578 | 12.22° C | 73% | 1013.5 hPa | 0 mm | - | - | - |
| 1777516273 | 12.22° C | 73% | 1013.5 hPa | 0 mm | - | - | - |
| 1777515969 | 12.22° C | 72% | 1013.4 hPa | 0 mm | - | - | - |
| 1777515666 | 12.22° C | 72% | 1013.3 hPa | 0 mm | - | - | - |
| 1777515364 | 12.22° C | 72% | 1013 hPa | 0 mm | - | - | - |
| 1777515059 | 12.22° C | 72% | 1012.9 hPa | 0 mm | - | - | - |
| 1777514755 | 12.22° C | 74% | 1012.9 hPa | 0 mm | - | - | - |
| 1777514453 | 12.22° C | 73% | 1012.9 hPa | 0 mm | - | - | - |
| 1777514150 | 12.78° C | 72% | 1012.9 hPa | 0 mm | - | - | - |
| 1777513847 | 12.78° C | 71% | 1012.8 hPa | 0 mm | - | - | - |
| 1777513544 | 12.78° C | 70% | 1012.8 hPa | 0 mm | - | - | - |
| 1777512937 | 13.33° C | 67% | 1012.4 hPa | 0 mm | - | - | - |
| 1777512331 | 13.33° C | 67% | 1012.5 hPa | 0 mm | - | - | - |
| 1777512027 | 12.78° C | 69% | 1012.5 hPa | 0 mm | - | - | - |
| 1777511726 | 12.78° C | 70% | 1012.7 hPa | 0 mm | - | - | - |
| 1777511423 | 12.78° C | 71% | 1012.3 hPa | 0 mm | - | - | - |
| 1777510512 | 13.33° C | 68% | 1011.9 hPa | 0 mm | - | - | - |
| 1777509297 | 13.89° C | 68% | 1011.9 hPa | 0 mm | - | - | - |
| 1777508085 | 14.44° C | 66% | 1011.7 hPa | 0 mm | - | - | - |
| 1777507782 | 14.44° C | 65% | 1011.6 hPa | 0 mm | - | - | - |
| 1777507479 | 15° C | 66% | 1011.6 hPa | 0 mm | - | - | - |
* Rain latest hour (hover to see other rain measurements)
** Current wind speed in m/s (hover to see current wind gust speed)